Nearby METAR Reports

 

EDLW - Dortmund/Wickede, Germany
Distance from station: OSO 17km
Aktuell: 04/06/2020 05:20
stark bewölkt
stark bewölkt
 Wind aus SW
Wind: SW 9 km/h
Temperatur: 15°C
Taupunkt: 12°C
Luftfeuchte: 82%
Luftdruck: 997 hPa
Clouds: stark bewölkt
Visibility: 10 km
Cloud details: stark bewölkt 2073 m
2020/06/04 03:20 EDLW 040320Z AUTO 23005KT 9999 // BKN068/// 15/12 Q0997
EDDL - Duesseldorf, Germany
Distance from station: SW 52km
Aktuell: 04/06/2020 05:20
teilweise bewölkt
teilweise bewölkt
 Wind aus WNW
Wind: WNW 7 km/h
Temperatur: 15°C
Taupunkt: 13°C
Luftfeuchte: 88%
Luftdruck: 997 hPa
Clouds: teilweise bewölkt
Visibility: 10 km
Cloud details: teilweise bewölkt 366 m
2020/06/04 03:20 EDDL 040320Z 30004KT 9999 SCT012 15/13 Q0997 TEMPO BKN012
 
EDDG - Muenster/Osnabru, Germany
Distance from station: NNO 67km
Aktuell: 04/06/2020 05:20
stark bewölkt
stark bewölkt
 Wind aus WSW
Wind: WSW 11 km/h
Temperatur: 14°C
Taupunkt: 12°C
Luftfeuchte: 88%
Luftdruck: 997 hPa
Clouds: stark bewölkt
Visibility: 10 km
Cloud details: stark bewölkt 274 m
2020/06/04 03:20 EDDG 040320Z 25006KT 9999 BKN009 14/12 Q0997 TEMPO BKN012
EDLN - Monchengladbach, Germany
Distance from station: WSW 72km
Aktuell: 04/06/2020 05:20
teilweise bewölkt
teilweise bewölkt
 Wind aus NW
Wind: NW 9 km/h
Temperatur: 15°C
Taupunkt: 12°C
Luftfeuchte: 82%
Luftdruck: 998 hPa
Clouds: teilweise bewölkt
Visibility: 10 km
Cloud details: leicht bewölkt 671 m
teilweise bewölkt 4267 m
2020/06/04 03:20 EDLN 040320Z AUTO 31005KT 9999 // FEW022/// SCT140/// 15/12 Q0998
 
EDDK - Koeln/Bonn, Germany
Distance from station: SSW 79km
Aktuell: 04/06/2020 05:20
Regen, stark bewölkt
Regen, stark bewölkt
 Wind aus varies
Wind: varies 4 km/h
Temperatur: 14°C
Taupunkt: 13°C
Luftfeuchte: 94%
Luftdruck: 998 hPa
Zusammenfassung: Regen
Clouds: stark bewölkt
Visibility: 9 km
Cloud details: stark bewölkt 1372 m
2020/06/04 03:20 EDDK 040320Z VRB02KT 9000 RA BKN045 14/13 Q0998 TEMPO NSW
EDLP - Paderborn/Lippst, Germany
Distance from station: O 85km
Aktuell: 03/06/2020 17:50
NOT Current
klar
klar
 Wind aus SSW
Wind: SSW 7 km/h
Temperatur: 24°C
Taupunkt: 8°C
Luftfeuchte: 36%
Luftdruck: 1002 hPa
Zusammenfassung: klar
Visibility: greater than 10 km
2020/06/03 15:50 EDLP 031550Z 20004KT 160V220 CAVOK 24/08 Q1002
 
EDLV - Niederrhein, Germany
Distance from station: W 86km
Aktuell: 03/06/2020 19:50
NOT Current
klar
klar
 Wind aus NW
Wind: NW 11 km/h
Temperatur: 21°C
Taupunkt: 9°C
Luftfeuchte: 46%
Luftdruck: 1001 hPa
Zusammenfassung: klar
Visibility: greater than 10 km
2020/06/03 17:50 EDLV 031750Z 31006KT 280V340 CAVOK 21/09 Q1001
ETNN - Noervenich (gaf), Germany
Distance from station: SSW 97km
Aktuell: 04/06/2020 05:20
sehr leichter Niederschlag, stark bewölkt
sehr leichter Niederschlag, stark bewölkt
 Wind aus W
Wind: W 6 km/h
Temperatur: 14°C
Taupunkt: 11°C
Luftfeuchte: 82%
Luftdruck: 998 hPa
Zusammenfassung: sehr leichter Niederschlag
Clouds: stark bewölkt
Visibility: 10 km
Cloud details: leicht bewölkt 1219 m
stark bewölkt 1829 m
2020/06/04 03:20 ETNN 040320Z 28003KT 9999 -RA FEW040 BKN060 14/11 Q0998 BLU